sensor_id;sensor_type;location;lat;lon;timestamp;temperature;humidity
33815;DHT22;20121;51.910;8.406;2023-07-09T14:03:29;34.30;74.30
33815;DHT22;20121;51.910;8.406;2023-07-09T14:05:55;34.30;71.90
33815;DHT22;20121;51.910;8.406;2023-07-09T14:08:21;34.30;72.20
33815;DHT22;20121;51.910;8.406;2023-07-09T14:10:47;34.30;72.00
33815;DHT22;20121;51.910;8.406;2023-07-09T14:13:21;34.30;72.20
33815;DHT22;20121;51.910;8.406;2023-07-09T14:15:48;34.00;91.80
33815;DHT22;20121;51.910;8.406;2023-07-09T14:18:25;34.10;71.80
33815;DHT22;20121;51.910;8.406;2023-07-09T14:20:52;34.00;90.60
33815;DHT22;20121;51.910;8.406;2023-07-09T14:23:19;33.80;71.40
33815;DHT22;20121;51.910;8.406;2023-07-09T14:25:45;33.50;92.60
33815;DHT22;20121;51.910;8.406;2023-07-09T14:28:20;34.40;92.00
33815;DHT22;20121;51.910;8.406;2023-07-09T14:30:48;34.20;81.20
33815;DHT22;20121;51.910;8.406;2023-07-09T14:33:18;33.80;72.90
33815;DHT22;20121;51.910;8.406;2023-07-09T14:35:44;33.80;92.10
33815;DHT22;20121;51.910;8.406;2023-07-09T14:40:43;33.80;73.10
33815;DHT22;20121;51.910;8.406;2023-07-09T14:43:10;33.80;74.90
33815;DHT22;20121;51.910;8.406;2023-07-09T14:45:36;33.80;75.10
33815;DHT22;20121;51.910;8.406;2023-07-09T14:48:09;33.80;91.40
33815;DHT22;20121;51.910;8.406;2023-07-09T14:50:35;33.90;90.80
33815;DHT22;20121;51.910;8.406;2023-07-09T14:53:01;33.60;71.40
33815;DHT22;20121;51.910;8.406;2023-07-09T14:55:26;34.00;91.60
33815;DHT22;20121;51.910;8.406;2023-07-09T14:57:54;33.60;75.40
33815;DHT22;20121;51.910;8.406;2023-07-09T15:00:22;33.50;75.30
33815;DHT22;20121;51.910;8.406;2023-07-09T15:02:52;33.00;91.00
33815;DHT22;20121;51.910;8.406;2023-07-09T15:05:25;33.30;73.70
33815;DHT22;20121;51.910;8.406;2023-07-09T15:07:52;33.20;74.50
33815;DHT22;20121;51.910;8.406;2023-07-09T15:10:22;33.00;92.50
33815;DHT22;20121;51.910;8.406;2023-07-09T15:12:49;33.10;94.00
33815;DHT22;20121;51.910;8.406;2023-07-09T15:15:30;33.20;75.70
33815;DHT22;20121;51.910;8.406;2023-07-09T15:17:57;32.60;91.80
33815;DHT22;20121;51.910;8.406;2023-07-09T15:20:25;33.20;93.20
33815;DHT22;20121;51.910;8.406;2023-07-09T15:22:53;33.20;75.50
33815;DHT22;20121;51.910;8.406;2023-07-09T15:25:24;33.10;92.90
33815;DHT22;20121;51.910;8.406;2023-07-09T15:27:51;33.10;75.20
33815;DHT22;20121;51.910;8.406;2023-07-09T15:30:22;33.40;93.00
33815;DHT22;20121;51.910;8.406;2023-07-09T15:32:49;33.50;86.60
33815;DHT22;20121;51.910;8.406;2023-07-09T15:35:16;33.10;93.50
33815;DHT22;20121;51.910;8.406;2023-07-09T15:37:42;33.00;78.10
33815;DHT22;20121;51.910;8.406;2023-07-09T15:40:28;32.90;75.80
33815;DHT22;20121;51.910;8.406;2023-07-09T15:43:00;32.90;78.80
33815;DHT22;20121;51.910;8.406;2023-07-09T15:45:28;32.90;79.70
33815;DHT22;20121;51.910;8.406;2023-07-09T15:47:54;32.80;80.20
33815;DHT22;20121;51.910;8.406;2023-07-09T15:50:26;32.40;96.10
33815;DHT22;20121;51.910;8.406;2023-07-09T15:52:53;32.70;83.10
33815;DHT22;20121;51.910;8.406;2023-07-09T15:55:24;32.60;81.60
33815;DHT22;20121;51.910;8.406;2023-07-09T15:57:52;32.50;80.90
33815;DHT22;20121;51.910;8.406;2023-07-09T16:00:23;32.20;95.50
33815;DHT22;20121;51.910;8.406;2023-07-09T16:02:50;32.10;95.00
33815;DHT22;20121;51.910;8.406;2023-07-09T16:05:24;32.50;95.30
33815;DHT22;20121;51.910;8.406;2023-07-09T16:07:50;31.90;95.90
33815;DHT22;20121;51.910;8.406;2023-07-09T16:10:17;32.30;96.70
33815;DHT22;20121;51.910;8.406;2023-07-09T16:12:45;31.90;97.80
33815;DHT22;20121;51.910;8.406;2023-07-09T16:15:12;32.00;86.30
33815;DHT22;20121;51.910;8.406;2023-07-09T16:17:46;31.80;86.70
33815;DHT22;20121;51.910;8.406;2023-07-09T16:20:14;31.70;88.90
33815;DHT22;20121;51.910;8.406;2023-07-09T16:22:41;31.80;90.00
33815;DHT22;20121;51.910;8.406;2023-07-09T16:25:15;31.80;98.90
33815;DHT22;20121;51.910;8.406;2023-07-09T16:27:43;31.60;90.00
33815;DHT22;20121;51.910;8.406;2023-07-09T16:30:23;31.10;94.00
33815;DHT22;20121;51.910;8.406;2023-07-09T16:35:21;31.30;88.10
33815;DHT22;20121;51.910;8.406;2023-07-09T16:37:48;31.30;90.30
33815;DHT22;20121;51.910;8.406;2023-07-09T16:40:16;30.80;98.70
33815;DHT22;20121;51.910;8.406;2023-07-09T16:42:43;31.20;90.70
33815;DHT22;20121;51.910;8.406;2023-07-09T16:45:12;31.20;98.30
33815;DHT22;20121;51.910;8.406;2023-07-09T16:47:38;30.20;98.40
33815;DHT22;20121;51.910;8.406;2023-07-09T16:50:04;30.20;88.50
33815;DHT22;20121;51.910;8.406;2023-07-09T16:52:30;29.00;99.90
33815;DHT22;20121;51.910;8.406;2023-07-09T16:57:26;28.70;92.90
33815;DHT22;20121;51.910;8.406;2023-07-09T17:00:15;28.30;97.20
33815;DHT22;20121;51.910;8.406;2023-07-09T17:02:39;28.40;99.90
33815;DHT22;20121;51.910;8.406;2023-07-09T17:05:05;26.70;99.90
33815;DHT22;20121;51.910;8.406;2023-07-09T17:07:32;28.20;99.90
33815;DHT22;20121;51.910;8.406;2023-07-09T17:09:58;27.30;99.90
33815;DHT22;20121;51.910;8.406;2023-07-09T17:12:26;27.50;99.90
33815;DHT22;20121;51.910;8.406;2023-07-09T17:14:53;26.60;99.90
33815;DHT22;20121;51.910;8.406;2023-07-09T17:17:20;26.80;99.90
33815;DHT22;20121;51.910;8.406;2023-07-09T17:19:47;26.80;99.90
33815;DHT22;20121;51.910;8.406;2023-07-09T17:22:31;26.50;99.90
33815;DHT22;20121;51.910;8.406;2023-07-09T17:24:59;26.10;99.90
33815;DHT22;20121;51.910;8.406;2023-07-09T17:27:24;25.60;99.90
33815;DHT22;20121;51.910;8.406;2023-07-09T17:29:50;26.00;99.90
33815;DHT22;20121;51.910;8.406;2023-07-09T17:37:15;25.30;99.90
33815;DHT22;20121;51.910;8.406;2023-07-09T17:39:42;25.30;99.90
33815;DHT22;20121;51.910;8.406;2023-07-09T17:42:17;25.10;99.90
33815;DHT22;20121;51.910;8.406;2023-07-09T17:47:14;25.00;99.90
33815;DHT22;20121;51.910;8.406;2023-07-09T17:49:41;24.80;99.90
33815;DHT22;20121;51.910;8.406;2023-07-09T17:52:16;24.60;99.90
33815;DHT22;20121;51.910;8.406;2023-07-09T17:54:42;25.10;99.90
33815;DHT22;20121;51.910;8.406;2023-07-09T17:57:13;25.00;99.90
33815;DHT22;20121;51.910;8.406;2023-07-09T17:59:39;24.80;99.90
33815;DHT22;20121;51.910;8.406;2023-07-09T18:07:00;23.90;99.90
33815;DHT22;20121;51.910;8.406;2023-07-09T18:09:31;23.80;99.90
33815;DHT22;20121;51.910;8.406;2023-07-09T18:11:58;23.90;99.90
33815;DHT22;20121;51.910;8.406;2023-07-09T18:14:29;23.50;99.90
33815;DHT22;20121;51.910;8.406;2023-07-09T18:16:57;23.70;99.90
33815;DHT22;20121;51.910;8.406;2023-07-09T18:19:25;23.00;99.90
33815;DHT22;20121;51.910;8.406;2023-07-09T18:21:54;23.80;99.90
33815;DHT22;20121;51.910;8.406;2023-07-09T18:24:22;23.70;99.90
33815;DHT22;20121;51.910;8.406;2023-07-09T18:26:48;23.20;99.90
33815;DHT22;20121;51.910;8.406;2023-07-09T18:29:25;22.90;99.90
33815;DHT22;20121;51.910;8.406;2023-07-09T18:31:51;23.10;99.90
33815;DHT22;20121;51.910;8.406;2023-07-09T18:34:17;22.80;99.90
33815;DHT22;20121;51.910;8.406;2023-07-09T18:39:09;23.30;99.90
33815;DHT22;20121;51.910;8.406;2023-07-09T18:41:35;22.40;99.90
33815;DHT22;20121;51.910;8.406;2023-07-09T18:44:07;22.40;99.90
33815;DHT22;20121;51.910;8.406;2023-07-09T18:46:34;23.00;99.90
33815;DHT22;20121;51.910;8.406;2023-07-09T18:49:00;22.50;99.90
33815;DHT22;20121;51.910;8.406;2023-07-09T18:51:25;22.20;99.90
33815;DHT22;20121;51.910;8.406;2023-07-09T18:53:51;22.90;99.90
33815;DHT22;20121;51.910;8.406;2023-07-09T18:58:42;22.70;99.90
33815;DHT22;20121;51.910;8.406;2023-07-09T19:01:19;22.10;99.90
33815;DHT22;20121;51.910;8.406;2023-07-09T19:03:46;22.50;99.90
33815;DHT22;20121;51.910;8.406;2023-07-09T19:06:12;22.60;99.90
33815;DHT22;20121;51.910;8.406;2023-07-09T19:11:06;22.20;99.90
33815;DHT22;20121;51.910;8.406;2023-07-09T19:15:59;22.80;99.90
33815;DHT22;20121;51.910;8.406;2023-07-09T19:18:29;22.60;99.90
33815;DHT22;20121;51.910;8.406;2023-07-09T19:20:59;22.20;99.90
33815;DHT22;20121;51.910;8.406;2023-07-09T19:23:25;22.00;99.90
33815;DHT22;20121;51.910;8.406;2023-07-09T19:25:52;22.20;99.90
33815;DHT22;20121;51.910;8.406;2023-07-09T19:28:20;21.80;99.90
33815;DHT22;20121;51.910;8.406;2023-07-09T19:30:47;21.60;99.90
33815;DHT22;20121;51.910;8.406;2023-07-09T19:33:19;22.00;99.90
33815;DHT22;20121;51.910;8.406;2023-07-09T19:35:45;21.60;99.90
33815;DHT22;20121;51.910;8.406;2023-07-09T19:43:05;21.80;99.90
33815;DHT22;20121;51.910;8.406;2023-07-09T19:45:38;22.80;99.90
33815;DHT22;20121;51.910;8.406;2023-07-09T19:48:14;22.40;99.90
33815;DHT22;20121;51.910;8.406;2023-07-09T19:53:29;22.90;99.90
33815;DHT22;20121;51.910;8.406;2023-07-09T19:55:55;22.50;99.90
33815;DHT22;20121;51.910;8.406;2023-07-09T19:58:21;22.80;99.90
33815;DHT22;20121;51.910;8.406;2023-07-09T20:00:47;23.00;99.90
33815;DHT22;20121;51.910;8.406;2023-07-09T20:03:23;22.30;99.90
33815;DHT22;20121;51.910;8.406;2023-07-09T20:05:49;22.70;99.90
33815;DHT22;20121;51.910;8.406;2023-07-09T20:08:17;22.30;99.90
33815;DHT22;20121;51.910;8.406;2023-07-09T20:10:45;22.30;99.90
33815;DHT22;20121;51.910;8.406;2023-07-09T20:13:21;22.60;99.90
33815;DHT22;20121;51.910;8.406;2023-07-09T20:15:47;22.60;99.90
33815;DHT22;20121;51.910;8.406;2023-07-09T20:18:17;22.50;99.90
33815;DHT22;20121;51.910;8.406;2023-07-09T20:20:52;22.20;99.90
33815;DHT22;20121;51.910;8.406;2023-07-09T20:23:18;23.00;99.90
33815;DHT22;20121;51.910;8.406;2023-07-09T20:25:44;22.10;99.90
33815;DHT22;20121;51.910;8.406;2023-07-09T20:28:19;22.10;99.90
33815;DHT22;20121;51.910;8.406;2023-07-09T20:30:46;22.60;99.90
33815;DHT22;20121;51.910;8.406;2023-07-09T20:33:13;22.40;99.90
33815;DHT22;20121;51.910;8.406;2023-07-09T20:35:39;23.00;99.90
33815;DHT22;20121;51.910;8.406;2023-07-09T20:38:25;22.90;99.90
33815;DHT22;20121;51.910;8.406;2023-07-09T20:40:51;22.90;99.90
33815;DHT22;20121;51.910;8.406;2023-07-09T20:43:30;22.10;99.90
33815;DHT22;20121;51.910;8.406;2023-07-09T20:45:57;21.90;99.90
33815;DHT22;20121;51.910;8.406;2023-07-09T20:48:23;22.50;99.90
33815;DHT22;20121;51.910;8.406;2023-07-09T20:50:51;22.70;99.90
33815;DHT22;20121;51.910;8.406;2023-07-09T20:53:22;21.80;99.90
33815;DHT22;20121;51.910;8.406;2023-07-09T20:55:51;22.30;99.90
33815;DHT22;20121;51.910;8.406;2023-07-09T20:58:23;22.30;99.90
33815;DHT22;20121;51.910;8.406;2023-07-09T21:00:51;22.10;99.90
33815;DHT22;20121;51.910;8.406;2023-07-09T21:03:19;21.90;99.90
33815;DHT22;20121;51.910;8.406;2023-07-09T21:05:46;21.80;99.90
33815;DHT22;20121;51.910;8.406;2023-07-09T21:08:16;22.00;99.90
33815;DHT22;20121;51.910;8.406;2023-07-09T21:10:44;22.30;99.90
33815;DHT22;20121;51.910;8.406;2023-07-09T21:13:15;22.00;99.90
33815;DHT22;20121;51.910;8.406;2023-07-09T21:15:41;21.90;99.90
33815;DHT22;20121;51.910;8.406;2023-07-09T21:18:13;21.90;99.90
33815;DHT22;20121;51.910;8.406;2023-07-09T21:20:40;22.50;99.90
33815;DHT22;20121;51.910;8.406;2023-07-09T21:23:18;22.20;99.90
33815;DHT22;20121;51.910;8.406;2023-07-09T21:28:11;22.30;99.90
33815;DHT22;20121;51.910;8.406;2023-07-09T21:30:37;21.20;99.90
33815;DHT22;20121;51.910;8.406;2023-07-09T21:33:03;21.60;99.90
33815;DHT22;20121;51.910;8.406;2023-07-09T21:35:29;21.80;99.90
33815;DHT22;20121;51.910;8.406;2023-07-09T21:37:56;21.60;99.90
33815;DHT22;20121;51.910;8.406;2023-07-09T21:40:31;21.90;99.90
33815;DHT22;20121;51.910;8.406;2023-07-09T21:42:58;22.10;99.90
33815;DHT22;20121;51.910;8.406;2023-07-09T21:45:43;22.30;99.90
33815;DHT22;20121;51.910;8.406;2023-07-09T21:48:21;22.10;99.90
33815;DHT22;20121;51.910;8.406;2023-07-09T21:50:48;21.50;99.90
33815;DHT22;20121;51.910;8.406;2023-07-09T21:53:17;22.20;99.90
33815;DHT22;20121;51.910;8.406;2023-07-09T21:55:43;22.00;99.90
33815;DHT22;20121;51.910;8.406;2023-07-09T21:58:09;21.50;99.90
33815;DHT22;20121;51.910;8.406;2023-07-09T22:00:34;22.30;99.90
33815;DHT22;20121;51.910;8.406;2023-07-09T22:03:02;21.50;99.90
33815;DHT22;20121;51.910;8.406;2023-07-09T22:05:28;21.80;99.90
33815;DHT22;20121;51.910;8.406;2023-07-09T22:07:55;21.50;99.90
33815;DHT22;20121;51.910;8.406;2023-07-09T22:10:33;21.80;99.90
33815;DHT22;20121;51.910;8.406;2023-07-09T22:13:00;21.80;99.90
33815;DHT22;20121;51.910;8.406;2023-07-09T22:15:31;21.40;99.90
33815;DHT22;20121;51.910;8.406;2023-07-09T22:17:59;21.50;99.90
33815;DHT22;20121;51.910;8.406;2023-07-09T22:20:26;21.80;99.90
33815;DHT22;20121;51.910;8.406;2023-07-09T22:22:53;21.80;99.90
33815;DHT22;20121;51.910;8.406;2023-07-09T22:25:29;21.30;99.90
33815;DHT22;20121;51.910;8.406;2023-07-09T22:27:56;21.90;99.90
33815;DHT22;20121;51.910;8.406;2023-07-09T22:30:25;22.00;99.90
33815;DHT22;20121;51.910;8.406;2023-07-09T22:32:53;21.60;99.90
33815;DHT22;20121;51.910;8.406;2023-07-09T22:35:21;21.80;99.90
33815;DHT22;20121;51.910;8.406;2023-07-09T22:37:48;21.40;99.90
33815;DHT22;20121;51.910;8.406;2023-07-09T22:40:23;21.70;99.90
33815;DHT22;20121;51.910;8.406;2023-07-09T22:42:52;21.70;99.90
33815;DHT22;20121;51.910;8.406;2023-07-09T22:45:19;21.70;99.90
33815;DHT22;20121;51.910;8.406;2023-07-09T22:47:51;21.70;99.90
33815;DHT22;20121;51.910;8.406;2023-07-09T22:50:21;21.70;99.90
33815;DHT22;20121;51.910;8.406;2023-07-09T22:52:49;21.60;99.90
33815;DHT22;20121;51.910;8.406;2023-07-09T22:55:35;21.30;99.90
33815;DHT22;20121;51.910;8.406;2023-07-09T22:58:03;21.60;99.90
33815;DHT22;20121;51.910;8.406;2023-07-09T23:00:32;21.60;99.90
33815;DHT22;20121;51.910;8.406;2023-07-09T23:02:59;21.60;99.90
33815;DHT22;20121;51.910;8.406;2023-07-09T23:05:26;21.60;99.90
33815;DHT22;20121;51.910;8.406;2023-07-09T23:07:52;21.70;99.90
33815;DHT22;20121;51.910;8.406;2023-07-09T23:10:19;21.60;99.90
33815;DHT22;20121;51.910;8.406;2023-07-09T23:12:45;21.60;99.90
33815;DHT22;20121;51.910;8.406;2023-07-09T23:15:25;21.50;99.90
33815;DHT22;20121;51.910;8.406;2023-07-09T23:17:54;21.00;99.90
33815;DHT22;20121;51.910;8.406;2023-07-09T23:20:21;21.40;99.90
33815;DHT22;20121;51.910;8.406;2023-07-09T23:22:49;21.40;99.90
33815;DHT22;20121;51.910;8.406;2023-07-09T23:25:15;21.40;99.90
33815;DHT22;20121;51.910;8.406;2023-07-09T23:27:41;21.40;99.90
33815;DHT22;20121;51.910;8.406;2023-07-09T23:32:40;21.40;99.90
33815;DHT22;20121;51.910;8.406;2023-07-09T23:35:17;21.40;99.90
33815;DHT22;20121;51.910;8.406;2023-07-09T23:37:44;21.40;99.90
33815;DHT22;20121;51.910;8.406;2023-07-09T23:40:11;21.40;99.90
33815;DHT22;20121;51.910;8.406;2023-07-09T23:42:37;21.40;99.90
33815;DHT22;20121;51.910;8.406;2023-07-09T23:45:04;21.40;99.90
33815;DHT22;20121;51.910;8.406;2023-07-09T23:47:30;21.40;99.90
33815;DHT22;20121;51.910;8.406;2023-07-09T23:49:56;21.40;99.90
33815;DHT22;20121;51.910;8.406;2023-07-09T23:52:22;21.40;99.90
33815;DHT22;20121;51.910;8.406;2023-07-09T23:54:48;21.40;99.90
33815;DHT22;20121;51.910;8.406;2023-07-09T23:57:14;21.40;99.90
33815;DHT22;20121;51.910;8.406;2023-07-09T23:59:40;21.40;99.90
